Hauptseite
METAR-TAF:

METAR-TAF

Flughäfen :

Flughafen Girona

Girona, Spanien

Breite: 41-54N, Länge: 002-46E, Höhe: 143 m

Beobachtung

Neuester Wetterbericht von vor 29 Minuten, um 11:00 UTC
Wind 6 kt aus Ost/Südost
Temperatur 31°C
Luftfeuchtigkeit 40%
Luftdruck 1015 hPa
Sichtweite 10 km oder mehr
Leicht bewölkt in der Höhe von 3000 ft

METAR: LEGE 191100Z 12006KT 9999 FEW030 31/16 Q1015

Zeit: 13:29 (11:29 UTC)

Prognose

Neuester Wetterbericht von vor 6 Stunden und 29 Minuten, um 05:00 UTC
Gültige Prognose vom 19 um 06 UTC bis 20 um 06 UTC
Wind 4 kt aus unterschiedlichen Richtungen
Sichtweite 10 km oder mehr
Leicht bewölkt in der Höhe von 3000 ft
Übergehend zu
vom 19 um 10 UTC bis 19 um 12 UTC
Wind 10 kt aus Süd
Übergehend zu
vom 19 um 18 UTC bis 19 um 21 UTC
Wind 3 kt aus unterschiedlichen Richtungen

TAF: LEGE 190500Z 1906/2006 VRB04KT 9999 FEW030 TX35/1913Z TN18/2005Z BECMG 1910/1912 18010KT BECMG 1918/1921 VRB03KT

Wetterbeobachtungen und Prognosen von mehr als 4000 Flughäfen (METAR und TAF Bericht).

Die verfügbaren Stationen werden durch gelbe und rote Markierungen auf der Karte dargestellt.

Führen Sie die Maus auf sie, um den Namen der Station zu sehen.

Darauf klicken, um die Beobachtung von Wetterbeobachtungen und Prognosen zu sehen.

Um die Karte zu ändern : klicken Sie auf den grünen Tasten mit einem schwarzen Kreuz Zum Vergrößern, auf den grünen Button mit einem Gedankenstrich zu verkleinern, oder auf die grünen Pfeile für benachbarte Karten.


METAR-TAF: